Time;durP1;ratioP1;P1;durP2;ratioP2;P2;SDS_P1;SDS_P2;PMS_P1;PMS_P2;Temp;Humidity;BMP_temperature;BMP_pressure;BME280_temperature;BME280_humidity;BME280_pressure;Samples;Min_cycle;Max_cycle;Signal;HPM_P1;HPM_P2
2022/03/31 00:00:46;;;;;;;;;;;;;;;18.23;41.96;99952.44;4998915;28;829;-54
2022/03/31 00:03:13;;;;;;;;;;;;;;;18.32;41.67;99956.13;4998859;28;878;-54
2022/03/31 00:05:38;;;;;;;;;;;;;;;18.28;41.73;99947.66;4998703;28;830;-54
2022/03/31 00:08:06;;;;;;;;;;;;;;;18.22;41.60;99937.06;4999571;28;853;-54
2022/03/31 00:10:32;;;;;;;;;;;;;;;18.30;41.63;99936.34;4984740;28;1987;-54
2022/03/31 00:12:58;;;;;;;;;;;;;;;18.29;41.60;99949.28;4998362;28;858;-54
2022/03/31 00:15:24;;;;;;;;;;;;;;;18.37;41.50;99941.44;4999014;28;873;-54
2022/03/31 00:17:49;;;;;;;;;;;;;;;18.47;41.43;99949.50;4998775;28;818;-54
2022/03/31 00:20:15;;;;;;;;;;;;;;;18.45;41.76;99932.47;4998512;28;844;-54
2022/03/31 00:22:41;;;;;;;;;;;;;;;18.44;41.70;99925.34;5017615;28;806;-54
2022/03/31 00:25:07;;;;;;;;;;;;;;;18.31;42.43;99943.47;4993054;28;782;-55
2022/03/31 00:27:33;;;;;;;;;;;;;;;18.44;42.03;99919.84;4998545;28;794;-54
2022/03/31 00:29:59;;;;;;;;;;;;;;;18.43;42.30;99924.50;4998292;28;1902;-53
2022/03/31 00:32:24;;;;;;;;;;;;;;;18.34;42.41;99926.38;4998152;28;810;-54
2022/03/31 00:34:50;;;;;;;;;;;;;;;18.47;42.44;99909.00;5009349;28;761;-54
2022/03/31 00:37:15;;;;;;;;;;;;;;;18.41;42.42;99918.50;4998764;28;978;-54
2022/03/31 00:39:42;;;;;;;;;;;;;;;18.39;42.79;99906.97;4994860;28;861;-54
2022/03/31 00:42:08;;;;;;;;;;;;;;;18.44;42.74;99909.63;5017171;28;776;-55
2022/03/31 00:44:34;;;;;;;;;;;;;;;18.45;42.94;99900.25;5016598;28;789;-54
2022/03/31 00:46:59;;;;;;;;;;;;;;;18.49;42.89;99896.88;5014509;28;824;-54
2022/03/31 00:49:25;;;;;;;;;;;;;;;18.49;42.83;99896.88;5017156;28;1890;-54
2022/03/31 00:51:52;;;;;;;;;;;;;;;18.49;42.58;99897.69;5016723;28;869;-54
2022/03/31 00:54:21;;;;;;;;;;;;;;;18.54;42.72;99883.03;5012913;28;1488;-54
2022/03/31 00:56:46;;;;;;;;;;;;;;;18.51;42.75;99883.63;5016842;28;762;-55
2022/03/31 00:59:12;;;;;;;;;;;;;;;18.40;42.80;99888.53;5010372;28;823;-54
2022/03/31 01:01:38;;;;;;;;;;;;;;;18.50;42.88;99876.50;5016548;28;1054;-54
2022/03/31 01:04:04;;;;;;;;;;;;;;;18.49;42.81;99872.91;5016459;28;835;-54
2022/03/31 01:06:29;;;;;;;;;;;;;;;18.47;42.62;99867.72;5016445;28;831;-54
2022/03/31 01:08:55;;;;;;;;;;;;;;;18.43;42.78;99874.16;5014687;28;834;-54
2022/03/31 01:11:21;;;;;;;;;;;;;;;18.51;42.84;99875.34;4995329;28;2001;-54
2022/03/31 01:13:47;;;;;;;;;;;;;;;18.62;42.51;99876.75;4997146;28;865;-54
2022/03/31 01:16:12;;;;;;;;;;;;;;;18.45;42.83;99881.00;4997721;28;807;-54
2022/03/31 01:18:38;;;;;;;;;;;;;;;18.46;42.70;99885.34;4997525;28;851;-54
2022/03/31 01:21:03;;;;;;;;;;;;;;;18.61;42.72;99891.69;4997290;28;889;-54
2022/03/31 01:23:29;;;;;;;;;;;;;;;18.63;42.91;99883.91;4997138;28;985;-54
2022/03/31 01:25:54;;;;;;;;;;;;;;;18.69;42.78;99881.84;4997106;28;842;-54
2022/03/31 01:28:20;;;;;;;;;;;;;;;18.71;43.04;99885.94;4997361;28;810;-54
2022/03/31 01:30:45;;;;;;;;;;;;;;;18.59;43.29;99883.72;4997056;28;1902;-54
2022/03/31 01:33:11;;;;;;;;;;;;;;;18.74;42.67;99890.00;4996859;28;846;-55
2022/03/31 01:35:36;;;;;;;;;;;;;;;18.70;42.71;99887.03;4997006;28;814;-54
2022/03/31 01:38:02;;;;;;;;;;;;;;;18.68;42.68;99880.22;5007969;28;1141;-54
2022/03/31 01:40:27;;;;;;;;;;;;;;;18.62;42.58;99865.75;5010820;28;829;-55
2022/03/31 01:42:52;;;;;;;;;;;;;;;18.41;42.89;99866.22;5016008;28;714;-53
2022/03/31 01:45:18;;;;;;;;;;;;;;;18.51;42.47;99875.34;5016039;28;782;-54
2022/03/31 01:47:44;;;;;;;;;;;;;;;18.46;42.50;99893.59;5005604;28;815;-54
2022/03/31 01:50:10;;;;;;;;;;;;;;;18.47;42.63;99889.75;4999983;28;1983;-54
2022/03/31 01:52:36;;;;;;;;;;;;;;;18.45;42.19;99872.72;5016102;28;782;-54
2022/03/31 01:55:02;;;;;;;;;;;;;;;18.39;42.31;99868.44;4995331;28;931;-54
2022/03/31 01:57:27;;;;;;;;;;;;;;;18.50;42.04;99871.00;5015860;28;778;-54
2022/03/31 01:59:54;;;;;;;;;;;;;;;18.50;42.10;99868.25;5007654;28;808;-54
2022/03/31 02:02:20;;;;;;;;;;;;;;;18.41;42.00;99879.97;4996246;28;857;-55
2022/03/31 02:04:46;;;;;;;;;;;;;;;18.35;42.12;99878.44;4996874;28;774;-54
2022/03/31 02:07:11;;;;;;;;;;;;;;;18.25;42.39;99887.72;4996701;28;870;-54
2022/03/31 02:09:37;;;;;;;;;;;;;;;18.39;41.96;99889.66;4996299;28;1975;-54
2022/03/31 02:12:03;;;;;;;;;;;;;;;18.32;41.75;99890.06;4996957;28;813;-54
2022/03/31 02:14:28;;;;;;;;;;;;;;;18.30;41.75;99884.06;4992551;28;1384;-54
2022/03/31 02:16:55;;;;;;;;;;;;;;;18.43;41.63;99877.72;4997086;28;830;-54
2022/03/31 02:19:21;;;;;;;;;;;;;;;18.38;41.48;99886.06;4996744;28;774;-54
2022/03/31 02:21:46;;;;;;;;;;;;;;;18.40;41.40;99877.53;4997069;28;881;-54
2022/03/31 02:24:12;;;;;;;;;;;;;;;18.45;41.32;99878.25;4996625;28;893;-53
2022/03/31 02:26:38;;;;;;;;;;;;;;;18.41;41.53;99868.97;5014971;28;834;-54
2022/03/31 02:29:03;;;;;;;;;;;;;;;18.36;41.44;99879.28;5001247;28;834;-53
2022/03/31 02:31:29;;;;;;;;;;;;;;;18.37;41.46;99872.63;4996376;28;1914;-54
2022/03/31 02:33:55;;;;;;;;;;;;;;;18.36;41.39;99871.81;4996494;28;879;-54
2022/03/31 02:36:21;;;;;;;;;;;;;;;18.32;41.63;99870.81;4996730;28;803;-54
2022/03/31 02:38:47;;;;;;;;;;;;;;;18.22;41.78;99871.03;4996401;28;1306;-54
2022/03/31 02:41:12;;;;;;;;;;;;;;;18.21;41.38;99866.63;4996072;28;909;-53
2022/03/31 02:43:38;;;;;;;;;;;;;;;18.29;41.26;99876.94;4996795;28;822;-54
2022/03/31 02:46:03;;;;;;;;;;;;;;;18.27;41.42;99865.41;4999698;28;850;-54
2022/03/31 02:48:29;;;;;;;;;;;;;;;18.27;41.29;99870.91;5014936;28;830;-54
2022/03/31 02:50:54;;;;;;;;;;;;;;;18.29;41.05;99874.19;5002623;28;1914;-53
2022/03/31 02:56:03;;;;;;;;;;;;;;;18.24;41.32;99863.25;4994216;28;727;-53
2022/03/31 02:58:29;;;;;;;;;;;;;;;18.29;41.25;99863.16;4996725;28;1128;-54
2022/03/31 03:00:54;;;;;;;;;;;;;;;18.32;40.97;99853.47;4996483;28;881;-53
2022/03/31 03:03:20;;;;;;;;;;;;;;;18.24;41.06;99844.00;4996328;28;846;-53
2022/03/31 03:05:46;;;;;;;;;;;;;;;18.32;41.03;99837.78;5009326;28;771;-53
2022/03/31 03:08:13;;;;;;;;;;;;;;;18.33;40.83;99842.16;5012162;28;788;-54
2022/03/31 03:10:38;;;;;;;;;;;;;;;18.26;40.87;99855.53;5012356;28;1967;-52
2022/03/31 03:13:04;;;;;;;;;;;;;;;18.22;41.05;99868.28;5015222;28;770;-54
2022/03/31 03:15:29;;;;;;;;;;;;;;;18.39;40.70;99868.44;4997511;28;798;-53
2022/03/31 03:17:55;;;;;;;;;;;;;;;18.19;41.12;99871.63;5013119;28;762;-53
2022/03/31 03:20:20;;;;;;;;;;;;;;;18.25;40.91;99862.16;4991836;28;1305;-53
2022/03/31 03:22:47;;;;;;;;;;;;;;;18.40;40.95;99870.09;5002955;28;751;-53
2022/03/31 03:25:12;;;;;;;;;;;;;;;18.21;41.18;99877.63;4988986;28;1214;-54
2022/03/31 03:27:38;;;;;;;;;;;;;;;18.17;41.43;99876.63;5018344;28;851;-55
2022/03/31 03:30:04;;;;;;;;;;;;;;;18.28;41.14;99878.03;5006535;28;1914;-54
2022/03/31 03:32:30;;;;;;;;;;;;;;;18.22;41.42;99874.59;5003299;28;1158;-55
2022/03/31 03:34:55;;;;;;;;;;;;;;;18.38;41.00;99888.03;5008800;28;777;-54
2022/03/31 03:37:21;;;;;;;;;;;;;;;18.29;41.46;99885.19;4999563;28;1142;-55
2022/03/31 03:39:46;;;;;;;;;;;;;;;18.29;41.20;99890.69;5000876;28;884;-54
2022/03/31 03:42:11;;;;;;;;;;;;;;;18.25;41.42;99887.72;4999690;28;823;-54
2022/03/31 03:44:37;;;;;;;;;;;;;;;18.29;41.07;99876.94;5006637;28;807;-56
2022/03/31 03:47:02;;;;;;;;;;;;;;;18.27;41.45;99870.91;5018187;28;812;-54
2022/03/31 03:49:28;;;;;;;;;;;;;;;18.23;41.40;99869.88;5017430;28;1919;-54
2022/03/31 03:51:53;;;;;;;;;;;;;;;18.30;41.56;99871.13;5010712;28;1400;-55
2022/03/31 03:54:19;;;;;;;;;;;;;;;18.34;41.54;99860.31;4991980;28;1163;-57
2022/03/31 03:56:44;;;;;;;;;;;;;;;18.40;41.72;99869.28;4992498;28;1349;-56
2022/03/31 03:59:10;;;;;;;;;;;;;;;18.40;41.87;99859.06;5003429;28;1644;-54
2022/03/31 04:01:35;;;;;;;;;;;;;;;18.38;41.77;99852.25;4998844;28;1842;-55
2022/03/31 04:04:00;;;;;;;;;;;;;;;18.45;41.69;99838.88;5003187;28;1321;-55
2022/03/31 04:06:26;;;;;;;;;;;;;;;18.42;41.64;99834.78;5016665;28;854;-54
2022/03/31 04:08:51;;;;;;;;;;;;;;;18.46;41.77;99846.81;4996130;28;971;-52
2022/03/31 04:11:17;;;;;;;;;;;;;;;18.47;41.57;99848.44;5005374;28;1910;-53
2022/03/31 04:13:42;;;;;;;;;;;;;;;18.53;41.22;99845.59;4998802;28;953;-54
2022/03/31 04:16:08;;;;;;;;;;;;;;;18.46;41.52;99857.81;4981123;28;886;-54
2022/03/31 04:18:33;;;;;;;;;;;;;;;18.54;41.17;99863.75;4998658;28;1177;-53
2022/03/31 04:21:02;;;;;;;;;;;;;;;18.54;40.91;99856.28;4998493;28;815;-54
2022/03/31 04:23:28;;;;;;;;;;;;;;;18.67;41.23;99857.38;4998041;28;812;-54
2022/03/31 04:25:54;;;;;;;;;;;;;;;18.71;40.77;99855.63;5014724;28;731;-54
2022/03/31 04:28:19;;;;;;;;;;;;;;;18.56;41.36;99861.50;4999070;28;1028;-54
2022/03/31 04:30:44;;;;;;;;;;;;;;;18.53;41.65;99859.38;5017290;28;1913;-54
2022/03/31 04:33:10;;;;;;;;;;;;;;;18.52;41.61;99860.47;5016363;28;853;-55
2022/03/31 04:35:36;;;;;;;;;;;;;;;18.51;41.68;99864.34;5011424;28;835;-54
2022/03/31 04:38:02;;;;;;;;;;;;;;;18.56;41.35;99875.25;5016782;28;1078;-54
2022/03/31 04:40:27;;;;;;;;;;;;;;;18.68;41.26;99874.72;5000636;28;925;-53
2022/03/31 04:42:53;;;;;;;;;;;;;;;18.48;41.78;99871.28;4998411;28;794;-54
2022/03/31 04:45:18;;;;;;;;;;;;;;;18.60;41.54;99873.50;4998366;28;851;-54
2022/03/31 04:47:44;;;;;;;;;;;;;;;18.52;42.09;99865.97;4997163;28;831;-54
2022/03/31 04:50:09;;;;;;;;;;;;;;;18.64;41.75;99866.28;4997873;28;1992;-55
2022/03/31 04:52:35;;;;;;;;;;;;;;;18.58;41.60;99870.25;4997547;28;1373;-54
2022/03/31 04:55:00;;;;;;;;;;;;;;;18.50;42.00;99863.53;4997516;28;818;-56
2022/03/31 04:57:26;;;;;;;;;;;;;;;18.49;41.84;99866.59;4997853;28;1507;-53
2022/03/31 04:59:51;;;;;;;;;;;;;;;18.61;41.65;99858.63;4997961;28;783;-54
2022/03/31 05:02:18;;;;;;;;;;;;;;;18.54;41.73;99872.00;5011605;28;857;-54
2022/03/31 05:04:43;;;;;;;;;;;;;;;18.44;42.00;99879.34;4998512;28;913;-55
2022/03/31 05:07:09;;;;;;;;;;;;;;;18.46;41.77;99890.84;4997896;28;778;-54
2022/03/31 05:09:34;;;;;;;;;;;;;;;18.55;41.63;99876.38;4997348;28;1898;-55
2022/03/31 05:12:00;;;;;;;;;;;;;;;18.41;41.74;99865.38;4997744;28;898;-55
2022/03/31 05:14:25;;;;;;;;;;;;;;;18.49;41.60;99864.66;5002564;28;870;-54
2022/03/31 05:16:50;;;;;;;;;;;;;;;18.54;41.80;99853.53;4997354;28;819;-55
2022/03/31 05:19:17;;;;;;;;;;;;;;;18.59;41.84;99861.69;4997843;28;721;-54
2022/03/31 05:21:43;;;;;;;;;;;;;;;18.71;41.44;99861.16;4997464;28;946;-54
2022/03/31 05:24:09;;;;;;;;;;;;;;;18.61;41.56;99855.88;5000918;28;781;-54
2022/03/31 05:26:35;;;;;;;;;;;;;;;18.50;41.86;99857.22;5011987;28;746;-54
2022/03/31 05:29:00;;;;;;;;;;;;;;;18.50;41.91;99837.97;5015848;28;878;-54
2022/03/31 05:31:26;;;;;;;;;;;;;;;18.68;41.54;99847.16;5015552;28;1918;-54
2022/03/31 05:33:51;;;;;;;;;;;;;;;18.38;42.07;99855.78;5016280;28;866;-55
2022/03/31 05:36:16;;;;;;;;;;;;;;;18.55;41.82;99855.19;5016191;28;786;-55
2022/03/31 05:38:42;;;;;;;;;;;;;;;18.45;41.95;99853.47;5012080;28;996;-55
2022/03/31 05:41:07;;;;;;;;;;;;;;;18.60;41.76;99852.28;5011893;28;867;-54
2022/03/31 05:43:33;;;;;;;;;;;;;;;18.70;41.48;99844.94;5015802;28;746;-55
2022/03/31 05:45:58;;;;;;;;;;;;;;;18.72;41.49;99849.00;5016216;28;798;-57
2022/03/31 05:48:24;;;;;;;;;;;;;;;18.64;41.67;99856.06;5015850;28;762;-58
2022/03/31 05:50:49;;;;;;;;;;;;;;;18.62;41.43;99843.72;5015665;28;1902;-57
2022/03/31 05:53:15;;;;;;;;;;;;;;;18.65;41.67;99840.38;4998512;28;837;-57
2022/03/31 05:55:45;;;;;;;;;;;;;;;18.52;41.96;99839.25;4979255;28;1015;-57
2022/03/31 05:58:10;;;;;;;;;;;;;;;18.51;41.93;99839.56;5009764;28;1236;-57
2022/03/31 06:00:36;;;;;;;;;;;;;;;18.53;41.74;99848.34;4992141;28;1082;-56
2022/03/31 06:03:01;;;;;;;;;;;;;;;18.54;41.80;99842.53;5002598;28;1204;-54
2022/03/31 06:05:28;;;;;;;;;;;;;;;18.52;42.02;99836.50;5003281;28;886;-55
2022/03/31 06:07:53;;;;;;;;;;;;;;;18.58;41.69;99856.47;5016071;28;906;-55
2022/03/31 06:10:22;;;;;;;;;;;;;;;18.48;41.91;99857.50;5000117;28;1902;-55
2022/03/31 06:12:47;;;;;;;;;;;;;;;18.55;41.77;99849.69;5002125;28;1106;-56
2022/03/31 06:15:13;;;;;;;;;;;;;;;18.61;42.00;99828.34;5015695;28;860;-56
2022/03/31 06:17:41;;;;;;;;;;;;;;;18.50;41.96;99829.69;5011095;28;917;-57
2022/03/31 06:20:07;;;;;;;;;;;;;;;18.75;41.65;99840.13;5015230;28;770;-54
2022/03/31 06:22:33;;;;;;;;;;;;;;;18.63;42.10;99843.44;5015138;28;763;-56
2022/03/31 06:24:58;;;;;;;;;;;;;;;18.58;42.08;99854.56;5001478;28;1263;-55
2022/03/31 06:27:24;;;;;;;;;;;;;;;18.64;42.42;99841.50;4990690;28;1258;-54
2022/03/31 06:29:49;;;;;;;;;;;;;;;18.60;42.17;99835.78;4996807;28;1973;-56
2022/03/31 06:32:15;;;;;;;;;;;;;;;18.60;42.34;99841.28;5007316;28;834;-58
2022/03/31 06:34:41;;;;;;;;;;;;;;;18.54;42.22;99836.22;4996273;28;992;-57
2022/03/31 06:37:08;;;;;;;;;;;;;;;18.62;42.09;99839.03;4995726;28;1180;-56
2022/03/31 06:39:33;;;;;;;;;;;;;;;18.62;42.33;99857.50;4996704;28;1252;-58
2022/03/31 06:41:58;;;;;;;;;;;;;;;18.43;42.64;99858.44;5011753;28;1404;-58
2022/03/31 06:44:24;;;;;;;;;;;;;;;18.60;42.22;99846.78;4998856;28;1128;-56
2022/03/31 06:46:51;;;;;;;;;;;;;;;18.68;42.23;99850.75;4990119;28;815;-58
2022/03/31 06:49:16;;;;;;;;;;;;;;;18.52;42.28;99858.53;4996480;28;855;-57
2022/03/31 06:51:43;;;;;;;;;;;;;;;18.60;42.13;99873.50;5004541;28;1915;-57
2022/03/31 06:54:09;;;;;;;;;;;;;;;18.53;42.17;99878.63;5001217;28;840;-56
2022/03/31 06:56:35;;;;;;;;;;;;;;;18.47;42.38;99880.69;5003718;28;1396;-54
2022/03/31 06:59:01;;;;;;;;;;;;;;;18.59;42.46;99866.38;5000966;28;1189;-55
2022/03/31 07:01:26;;;;;;;;;;;;;;;18.58;42.30;99892.28;5000000;28;787;-56
2022/03/31 07:03:52;;;;;;;;;;;;;;;18.59;42.35;99889.22;5000230;28;699;-56
2022/03/31 07:06:18;;;;;;;;;;;;;;;18.49;42.46;99891.38;5000025;28;754;-57
2022/03/31 07:08:43;;;;;;;;;;;;;;;18.67;42.32;99889.63;5004011;28;852;-56
2022/03/31 07:11:09;;;;;;;;;;;;;;;18.51;42.15;99895.47;5005870;28;2008;-58
2022/03/31 07:13:35;;;;;;;;;;;;;;;18.61;42.37;99886.16;5001821;28;1216;-58
2022/03/31 07:16:00;;;;;;;;;;;;;;;18.44;42.91;99875.81;5019062;28;843;-56
2022/03/31 07:18:26;;;;;;;;;;;;;;;18.18;44.06;99878.25;5018706;28;804;-57
2022/03/31 07:20:51;;;;;;;;;;;;;;;18.23;43.77;99891.91;5012747;28;788;-55
2022/03/31 07:23:18;;;;;;;;;;;;;;;18.22;43.59;99890.28;5000286;28;777;-55
2022/03/31 07:25:43;;;;;;;;;;;;;;;18.19;46.04;99888.13;4998854;28;1113;-56
2022/03/31 07:28:09;;;;;;;;;;;;;;;18.49;46.01;99885.88;4999505;28;1291;-56
2022/03/31 07:30:34;;;;;;;;;;;;;;;18.60;45.98;99884.53;4998977;28;1914;-55
2022/03/31 07:33:00;;;;;;;;;;;;;;;18.38;45.78;99888.81;5002583;28;786;-53
2022/03/31 07:35:27;;;;;;;;;;;;;;;18.09;44.74;99884.47;4999320;28;1315;-56
2022/03/31 07:37:53;;;;;;;;;;;;;;;17.79;43.45;99894.09;4998923;28;1155;-55
2022/03/31 07:40:18;;;;;;;;;;;;;;;17.64;42.16;99886.13;4993117;28;1045;-52
2022/03/31 07:42:44;;;;;;;;;;;;;;;17.39;41.10;99885.44;4999268;28;1248;-54
2022/03/31 07:45:11;;;;;;;;;;;;;;;17.38;40.69;99884.63;4998958;28;1220;-53
2022/03/31 07:47:37;;;;;;;;;;;;;;;17.19;40.43;99892.91;4998285;28;1320;-52
2022/03/31 07:50:03;;;;;;;;;;;;;;;17.03;39.60;99878.59;4995029;28;1918;-55
2022/03/31 07:52:28;;;;;;;;;;;;;;;17.00;39.48;99890.19;4998589;28;1257;-55
2022/03/31 07:54:54;;;;;;;;;;;;;;;16.92;39.49;99901.84;4998874;28;822;-55
2022/03/31 07:57:19;;;;;;;;;;;;;;;17.07;40.88;99885.13;4999261;28;886;-54
2022/03/31 07:59:45;;;;;;;;;;;;;;;17.38;43.41;99883.81;5006653;28;806;-54
2022/03/31 08:02:10;;;;;;;;;;;;;;;17.94;46.03;99885.56;5017461;28;922;-54
2022/03/31 08:04:36;;;;;;;;;;;;;;;18.32;47.19;99872.75;5017922;28;1363;-54
2022/03/31 08:07:01;;;;;;;;;;;;;;;18.64;47.60;99875.34;5017493;28;905;-54
2022/03/31 08:09:26;;;;;;;;;;;;;;;18.92;47.62;99880.00;5008933;28;1422;-59
2022/03/31 08:11:52;;;;;;;;;;;;;;;18.81;47.08;99882.94;5012178;28;1890;-57
2022/03/31 08:14:21;;;;;;;;;;;;;;;18.39;45.92;99876.69;4992350;28;862;-54
2022/03/31 08:16:49;;;;;;;;;;;;;;;18.07;44.04;99889.44;4991468;28;1289;-53
2022/03/31 08:19:15;;;;;;;;;;;;;;;17.77;42.40;99879.84;4998871;28;751;-54
2022/03/31 08:21:44;;;;;;;;;;;;;;;17.58;41.27;99885.41;4992252;28;822;-55
2022/03/31 08:24:10;;;;;;;;;;;;;;;17.42;40.58;99869.16;4998101;28;980;-54
2022/03/31 08:26:35;;;;;;;;;;;;;;;17.22;40.13;99864.00;4994198;28;1163;-55
2022/03/31 08:29:01;;;;;;;;;;;;;;;17.17;39.68;99869.59;4995487;28;1093;-55
2022/03/31 08:31:27;;;;;;;;;;;;;;;17.08;38.99;99859.31;4998338;28;1906;-55
2022/03/31 08:33:53;;;;;;;;;;;;;;;16.94;39.08;99855.66;5001499;28;1256;-55
2022/03/31 08:36:19;;;;;;;;;;;;;;;16.98;39.70;99864.94;4998822;28;857;-55
2022/03/31 08:38:44;;;;;;;;;;;;;;;17.07;40.66;99846.69;5006852;28;971;-56
2022/03/31 08:41:11;;;;;;;;;;;;;;;17.22;41.92;99875.84;5015630;28;823;-57
2022/03/31 08:43:36;;;;;;;;;;;;;;;17.36;42.98;99875.06;5017213;28;829;-57
2022/03/31 08:46:01;;;;;;;;;;;;;;;17.40;43.69;99865.91;5017168;28;794;-58
2022/03/31 08:48:27;;;;;;;;;;;;;;;17.49;44.03;99855.03;4989992;28;862;-57
2022/03/31 08:50:53;;;;;;;;;;;;;;;17.58;44.33;99866.94;4990481;28;2009;-57
2022/03/31 08:53:19;;;;;;;;;;;;;;;17.65;44.53;99866.56;5008607;28;1271;-54
2022/03/31 08:55:44;;;;;;;;;;;;;;;17.67;45.19;99863.50;4998508;28;987;-54
2022/03/31 08:58:10;;;;;;;;;;;;;;;17.69;45.11;99844.78;5000706;28;1189;-56
2022/03/31 09:00:35;;;;;;;;;;;;;;;17.85;45.55;99850.81;5017198;28;731;-55
2022/03/31 09:03:02;;;;;;;;;;;;;;;17.82;45.53;99854.16;5009307;28;917;-55
2022/03/31 09:05:34;;;;;;;;;;;;;;;17.86;45.78;99844.19;4998294;28;831;-54
2022/03/31 09:08:00;;;;;;;;;;;;;;;18.00;45.83;99838.72;4994996;28;1606;-57
2022/03/31 09:10:36;;;;;;;;;;;;;;;17.97;45.99;99839.34;4998790;28;1906;-55
2022/03/31 09:13:02;;;;;;;;;;;;;;;18.08;45.81;99849.81;4998053;28;1220;-59
2022/03/31 09:15:28;;;;;;;;;;;;;;;18.11;46.24;99856.66;4996679;28;1307;-57
2022/03/31 09:17:54;;;;;;;;;;;;;;;18.15;46.23;99841.16;4997363;28;811;-57
2022/03/31 09:20:21;;;;;;;;;;;;;;;18.23;46.15;99845.13;4998123;28;889;-58
2022/03/31 09:22:48;;;;;;;;;;;;;;;18.25;46.10;99848.38;4995989;28;1189;-57
2022/03/31 09:25:21;;;;;;;;;;;;;;;18.22;46.50;99849.81;4996324;28;1145;-52
2022/03/31 09:27:47;;;;;;;;;;;;;;;18.27;46.29;99848.88;4995554;28;1102;-55
2022/03/31 09:30:12;;;;;;;;;;;;;;;18.13;45.42;99855.22;4999724;28;1974;-56
2022/03/31 09:32:47;;;;;;;;;;;;;;;17.98;44.27;99858.28;5017179;28;854;-56
2022/03/31 09:35:16;;;;;;;;;;;;;;;17.69;42.77;99851.09;4995656;28;1307;-56
2022/03/31 09:37:42;;;;;;;;;;;;;;;17.57;42.15;99834.28;4996247;28;1094;-56
2022/03/31 09:40:07;;;;;;;;;;;;;;;17.47;40.99;99828.97;4993775;28;1077;-54
2022/03/31 09:42:33;;;;;;;;;;;;;;;17.23;40.15;99843.66;4975778;28;1342;-57
2022/03/31 09:44:58;;;;;;;;;;;;;;;17.08;39.67;99836.50;4997424;28;1285;-54
2022/03/31 09:47:26;;;;;;;;;;;;;;;17.06;39.17;99823.06;4990764;28;1034;-52
2022/03/31 09:49:52;;;;;;;;;;;;;;;17.03;39.86;99826.41;4997025;28;1914;-54
2022/03/31 09:52:18;;;;;;;;;;;;;;;17.12;40.90;99814.75;4997776;28;858;-51
2022/03/31 09:54:44;;;;;;;;;;;;;;;17.31;42.29;99832.00;4992131;28;839;-50
2022/03/31 09:57:10;;;;;;;;;;;;;;;17.56;43.92;99838.16;5016460;28;786;-50
2022/03/31 09:59:40;;;;;;;;;;;;;;;18.09;46.50;99832.19;5016837;28;890;-52
2022/03/31 10:02:05;;;;;;;;;;;;;;;18.48;47.30;99810.72;5016391;28;859;-51
2022/03/31 10:04:31;;;;;;;;;;;;;;;18.80;47.89;99809.72;5001784;28;1203;-51
2022/03/31 10:06:57;;;;;;;;;;;;;;;18.56;47.06;99792.66;4996596;28;1338;-52
2022/03/31 10:09:23;;;;;;;;;;;;;;;18.13;45.30;99771.84;4997508;28;1040;-49
2022/03/31 10:11:58;;;;;;;;;;;;;;;17.87;44.04;99774.31;4997335;28;1973;-51
2022/03/31 10:14:32;;;;;;;;;;;;;;;17.65;42.60;99775.03;4996471;28;999;-51
2022/03/31 10:16:59;;;;;;;;;;;;;;;17.49;41.66;99763.50;4994285;28;1229;-51
2022/03/31 10:19:30;;;;;;;;;;;;;;;17.37;40.35;99773.06;4999763;28;886;-55
2022/03/31 10:22:02;;;;;;;;;;;;;;;17.22;39.79;99765.94;5015965;28;824;-50
2022/03/31 10:24:46;;;;;;;;;;;;;;;17.13;39.49;99767.75;5007390;28;936;-53
2022/03/31 10:27:24;;;;;;;;;;;;;;;16.99;38.73;99777.88;5003019;28;1029;-55
2022/03/31 10:29:49;;;;;;;;;;;;;;;16.92;38.93;99783.75;4996545;28;1906;-52
2022/03/31 10:32:15;;;;;;;;;;;;;;;16.95;39.53;99796.06;5011903;28;1024;-52
2022/03/31 10:34:44;;;;;;;;;;;;;;;17.09;40.54;99789.50;5006175;28;968;-51
2022/03/31 10:37:10;;;;;;;;;;;;;;;17.31;41.68;99795.47;5001065;28;1091;-52
2022/03/31 10:39:35;;;;;;;;;;;;;;;17.37;43.13;99781.31;5000776;28;960;-51
2022/03/31 10:42:01;;;;;;;;;;;;;;;17.51;43.68;99786.03;5001251;28;853;-52
2022/03/31 10:44:27;;;;;;;;;;;;;;;17.56;44.29;99769.44;4994575;28;840;-52
2022/03/31 10:47:02;;;;;;;;;;;;;;;17.61;44.64;99764.66;5008916;28;808;-53
2022/03/31 10:49:29;;;;;;;;;;;;;;;17.73;44.88;99739.38;4995674;28;894;-54
2022/03/31 10:51:55;;;;;;;;;;;;;;;17.79;45.03;99735.44;5013481;28;1973;-53
2022/03/31 10:54:38;;;;;;;;;;;;;;;17.89;45.52;99722.56;5000872;28;926;-54
2022/03/31 10:57:12;;;;;;;;;;;;;;;17.90;45.58;99703.00;5002491;28;854;-53
2022/03/31 10:59:37;;;;;;;;;;;;;;;18.01;45.74;99698.13;5019569;28;880;-54
2022/03/31 11:02:30;;;;;;;;;;;;;;;18.05;46.04;99696.38;5019400;28;774;-53
2022/03/31 11:04:57;;;;;;;;;;;;;;;18.15;46.41;99702.78;5011111;28;1142;-54
2022/03/31 11:07:27;;;;;;;;;;;;;;;18.28;46.50;99710.19;5000553;28;790;-54
2022/03/31 11:10:25;;;;;;;;;;;;;;;18.32;46.29;99716.69;5009974;28;1975;-53
2022/03/31 11:12:50;;;;;;;;;;;;;;;18.34;46.28;99721.88;4967646;28;1200;-54
2022/03/31 11:15:16;;;;;;;;;;;;;;;18.20;45.97;99717.25;5008031;28;1244;-57
2022/03/31 11:17:42;;;;;;;;;;;;;;;18.10;45.21;99725.72;5003565;28;1225;-53
2022/03/31 11:20:14;;;;;;;;;;;;;;;18.03;44.30;99728.88;4999238;28;1204;-54
2022/03/31 11:22:44;;;;;;;;;;;;;;;17.78;42.95;99749.47;5008509;28;921;-55
2022/03/31 11:25:10;;;;;;;;;;;;;;;17.67;41.86;99754.38;5005777;28;830;-55
2022/03/31 11:27:36;;;;;;;;;;;;;;;17.49;41.09;99758.84;5000017;28;877;-55
2022/03/31 11:30:03;;;;;;;;;;;;;;;17.39;41.02;99762.59;5000100;28;1970;-55
2022/03/31 11:32:29;;;;;;;;;;;;;;;17.23;40.00;99745.56;5000271;28;862;-56
2022/03/31 11:34:54;;;;;;;;;;;;;;;17.14;39.34;99735.59;4999808;28;770;-55
2022/03/31 11:37:19;;;;;;;;;;;;;;;17.05;39.43;99749.22;4999710;28;1116;-57
2022/03/31 11:39:46;;;;;;;;;;;;;;;16.85;39.02;99723.69;5008505;28;760;-54
2022/03/31 11:42:11;;;;;;;;;;;;;;;16.88;38.80;99749.75;5017927;28;854;-56
2022/03/31 11:44:40;;;;;;;;;;;;;;;16.81;38.85;99744.63;5009855;28;775;-57
2022/03/31 11:47:05;;;;;;;;;;;;;;;16.77;39.12;99744.44;4999177;28;871;-58
2022/03/31 11:49:31;;;;;;;;;;;;;;;16.81;39.42;99735.59;5007666;28;891;-59
2022/03/31 11:51:57;;;;;;;;;;;;;;;16.99;40.61;99756.72;5018279;28;1906;-54
2022/03/31 11:54:22;;;;;;;;;;;;;;;17.03;41.90;99755.00;5011865;28;895;-54
2022/03/31 11:56:48;;;;;;;;;;;;;;;17.30;43.25;99753.41;5007263;28;1002;-55
2022/03/31 11:59:14;;;;;;;;;;;;;;;17.44;43.55;99750.69;4999375;28;831;-57
2022/03/31 12:01:43;;;;;;;;;;;;;;;17.50;44.31;99726.66;4993274;28;1046;-57
2022/03/31 12:04:21;;;;;;;;;;;;;;;17.56;44.36;99723.53;4997486;28;1220;-57
2022/03/31 12:06:51;;;;;;;;;;;;;;;17.67;44.57;99707.63;4999709;28;874;-59
2022/03/31 12:09:16;;;;;;;;;;;;;;;17.70;44.80;99719.97;5001257;28;834;-57
2022/03/31 12:11:42;;;;;;;;;;;;;;;17.76;45.01;99722.28;5018122;28;1914;-57
2022/03/31 12:14:07;;;;;;;;;;;;;;;17.78;44.94;99727.47;5005179;28;791;-57
2022/03/31 12:16:41;;;;;;;;;;;;;;;17.82;45.30;99733.19;5017933;28;849;-56
2022/03/31 12:19:06;;;;;;;;;;;;;;;17.85;45.43;99732.56;5018042;28;762;-57
2022/03/31 12:21:32;;;;;;;;;;;;;;;17.98;45.30;99708.94;5017765;28;751;-55
2022/03/31 12:23:58;;;;;;;;;;;;;;;17.96;45.35;99712.00;4998616;28;845;-57
2022/03/31 12:26:23;;;;;;;;;;;;;;;18.00;45.52;99692.94;5014240;28;870;-59
2022/03/31 12:28:49;;;;;;;;;;;;;;;18.02;45.48;99683.25;5017986;28;807;-58
2022/03/31 12:31:22;;;;;;;;;;;;;;;18.08;45.69;99705.97;5017427;28;1967;-60
2022/03/31 12:33:48;;;;;;;;;;;;;;;18.09;45.99;99724.06;5016163;28;1434;-60
2022/03/31 12:36:13;;;;;;;;;;;;;;;18.14;45.64;99712.97;5001175;28;925;-62
2022/03/31 12:38:49;;;;;;;;;;;;;;;18.13;45.72;99701.16;5002055;28;1502;-60
2022/03/31 12:41:14;;;;;;;;;;;;;;;18.13;45.66;99679.16;5002489;28;804;-60
2022/03/31 12:43:40;;;;;;;;;;;;;;;18.18;45.74;99680.97;4998687;28;829;-59
2022/03/31 12:46:12;;;;;;;;;;;;;;;18.12;45.20;99694.03;4998498;28;1458;-60
2022/03/31 12:48:38;;;;;;;;;;;;;;;18.08;45.02;99690.25;4998874;28;833;-60
2022/03/31 12:51:03;;;;;;;;;;;;;;;18.09;44.86;99682.81;4998864;28;1914;-60
2022/03/31 12:53:38;;;;;;;;;;;;;;;18.04;44.90;99667.25;5011362;28;901;-58
2022/03/31 12:56:04;;;;;;;;;;;;;;;18.08;44.58;99686.72;4994690;28;1055;-60
2022/03/31 12:58:36;;;;;;;;;;;;;;;18.03;44.44;99684.06;5013303;28;844;-61
2022/03/31 13:01:01;;;;;;;;;;;;;;;18.02;44.45;99688.75;5017491;28;832;-58